Altamont, New York
Current Conditions -  °F | °C
As of 11:51 PM on Saturday 20 Dec 2014 (Local Time) from KALB Reporting Station
Overcast Overcast  
Wind Chill: 22°   Ceiling: 2900
Heat Index: 28°   Visibility: 10mi
Dew Point: 19°   Wind: 6mph
Humidity: 69%   Direction: 10°N
Pressure: 30.3"   Gusts: NA
Location:  42.7°N, 74.03°W
Report Text: KALB 210451Z 01005KT 10SM OVC029 M02/M07 A3030 RMK AO2 SLP265 T10221072 410111050
Loading
Personal Weather Stations






























Interactive Weather Map New forecast layout! Learn more

10-Day Weather Forecast

Advertisements
Track Severe Weather on mobile